Latest Coastal Weather Observations for Gladstone

IDQ60701

Issued at 10:21 am EST Saturday 27 May 2017 (issued every 10 minutes, with the page automatically refreshed every 10 minutes)

About coastal observations | Map of coastal stations | Coastal observations for QLD | Marine services | Other Formats
Station Details ID: 039123 Name: GLADSTONE RADAR Lat: -23.86 Lon: 151.26 Height: 74.5 m
Data from the previous 72 hours. | See also: Recent months at Gladstone
Date/Time
EST
Temp
°C
Wind Pressure Rain since
9am
mm
Weather Cloud Vis
km
Sea
Height
m
Swell
Dir  Spd
kts
Gust
kts
hPa Trend Height
m
Period
s
Dir
27/10:00am 23.5 SE 7 11 1020.8 - 0.0 - - - - - - -
27/09:30am 22.8 SE 9 13 1020.7 - 0.0 - - - - - - -
27/09:00am 22.2 SE 7 11 1020.5 - 0.0 - - - - - - -
27/08:30am 21.4 SE 5 11 1020.3 - 0.0 - - - - - - -
27/08:00am 19.7 SSE 6 9 1020.1 - 0.0 - - - - - - -
27/07:30am 19.5 SSE 7 10 1019.6 - 0.0 - - - - - - -
27/07:00am 18.8 SSE 8 12 1019.4 - 0.0 - - - - - - -
27/06:30am 18.7 SSE 8 13 1019.1 - 0.0 - - - - - - -
27/06:00am 18.5 SSE 8 11 1018.7 - 0.0 - - - - - - -
27/05:30am 19.3 SE 9 11 1018.4 - 0.0 - - - - - - -
27/05:00am 19.1 SSE 8 11 1018.3 - 0.0 - - - - - - -
27/04:30am 19.1 SE 8 13 1018.3 - 0.0 - - - - - - -
27/04:00am 19.2 SE 8 11 1018.4 - 0.0 - - - - - - -
27/03:30am 19.2 SSE 9 12 1018.5 - 0.0 - - - - - - -
27/03:00am 19.5 SSE 8 11 1018.5 - 0.0 - - - - - - -
27/02:30am 19.4 SSE 9 12 1018.8 - 0.0 - - - - - - -
27/02:00am 19.0 SSE 7 10 1018.9 - 0.0 - - - - - - -
27/01:30am 19.0 SSE 7 11 1019.1 - 0.0 - - - - - - -
27/01:00am 18.7 SE 8 12 1019.4 - 0.0 - - - - - - -
27/12:30am 18.9 SSE 9 13 1019.3 - 0.0 - - - - - - -
27/12:00am 19.6 SSE 9 14 1019.4 - 0.0 - - - - - - -
 
Date/Time
EST
Temp
°C
Wind Pressure Rain since
9am
mm
Weather Cloud Vis
km
Sea
Height
m
Swell
Dir  Spd
kts
Gust
kts
hPa Trend Height
m
Period
s
Dir
26/11:30pm 19.9 SSE 8 11 1019.5 - 0.0 - - - - - - -
26/11:00pm 19.9 SSE 8 12 1019.6 - 0.0 - - - - - - -
26/10:30pm 19.9 SSE 7 9 1019.7 - 0.0 - - - - - - -
26/10:00pm 19.9 SE 7 9 1019.7 - 0.0 - - - - - - -
26/09:30pm 20.1 SE 7 9 1019.7 - 0.0 - - - - - - -
26/09:00pm 20.5 ESE 8 10 1019.7 - 0.0 - - - - - - -
26/08:30pm 20.8 E 10 14 1019.4 - 0.0 - - - - - - -
26/08:00pm 20.8 E 9 12 1019.2 - 0.0 - - - - - - -
26/07:30pm 20.9 E 9 13 1019.1 - 0.0 - - - - - - -
26/07:00pm 20.9 E 9 11 1018.7 - 0.0 - - - - - - -
26/06:30pm 20.8 E 8 11 1018.3 - 0.0 - - - - - - -
26/06:00pm 21.0 E 9 12 1017.8 - 0.0 - - - - - - -
26/05:30pm 21.1 ENE 9 13 1017.4 - 0.0 - - - - - - -
26/05:00pm 21.7 ENE 10 14 1017.2 - 0.0 - - - - - - -
26/04:30pm 22.7 ENE 11 16 1017.0 - 0.0 - - - - - - -
26/04:00pm 23.3 ENE 12 17 1016.9 - 0.0 - - - - - - -
26/03:30pm 24.1 ENE 12 17 1016.9 - 0.0 - - - - - - -
26/03:00pm 24.7 ENE 11 16 1016.8 - 0.0 - - - - - - -
26/02:30pm 25.0 ENE 11 18 1016.8 - 0.0 - - - - - - -
26/02:00pm 25.1 ENE 13 17 1016.9 - 0.0 - - - - - - -
26/01:30pm 25.7 ENE 12 16 1017.1 - 0.0 - - - - - - -
26/01:00pm 26.0 ENE 10 15 1017.6 - 0.0 - - - - - - -
26/12:30pm 25.8 E 11 15 1018.0 - 0.0 - - - - - - -
26/12:00pm 25.3 E 10 15 1018.6 - 0.0 - - - - - - -
26/11:30am 24.8 ESE 11 16 1019.0 - 0.0 - - - - - - -
26/11:00am 24.2 ESE 11 17 1019.4 - 0.0 - - - - - - -
26/10:30am 24.5 ESE 9 15 1019.6 - 0.0 - - - - - - -
26/10:00am 23.9 SE 7 13 1019.9 - 0.0 - - - - - - -
26/09:30am 22.2 SSE 7 10 1020.1 - 0.0 - - - - - - -
26/09:00am 21.6 SE 7 12 1020.1 - 0.0 - - - - - - -
26/08:30am 20.0 SSW 3 7 1020.0 - 0.0 - - - - - - -
26/08:00am 18.6 SSW 4 5 1019.8 - 0.0 - - - - - - -
26/07:30am 17.6 SSW 5 6 1019.5 - 0.0 - - - - - - -
26/07:00am 17.3 SSW 6 9 1019.2 - 0.0 - - - - - - -
26/06:30am 17.3 SSW 8 11 1018.7 - 0.0 - - - - - - -
26/06:00am 17.6 SSW 9 11 1018.1 - 0.0 - - - - - - -
26/05:30am 17.9 SSW 7 11 1018.0 - 0.0 - - - - - - -
26/05:00am 17.8 S 9 11 1017.7 - 0.0 - - - - - - -
26/04:30am 17.9 S 8 13 1017.5 - 0.0 - - - - - - -
26/04:00am 18.0 S 8 10 1017.5 - 0.0 - - - - - - -
26/03:30am 18.7 S 8 11 1017.7 - 0.0 - - - - - - -
26/03:00am 18.7 SSE 9 12 1017.8 - 0.0 - - - - - - -
26/02:30am 19.0 SSE 9 11 1018.1 - 0.0 - - - - - - -
26/02:00am 19.1 SSE 8 11 1018.3 - 0.0 - - - - - - -
26/01:30am 19.4 SSE 8 11 1018.4 - 0.0 - - - - - - -
26/01:00am 19.6 SSE 9 12 1018.6 - 0.0 - - - - - - -
26/12:30am 19.4 SSE 7 11 1018.8 - 0.0 - - - - - - -
26/12:00am 19.6 SSE 5 6 1019.0 - 0.0 - - - - - - -
 
Date/Time
EST
Temp
°C
Wind Pressure Rain since
9am
mm
Weather Cloud Vis
km
Sea
Height
m
Swell
Dir  Spd
kts
Gust
kts
hPa Trend Height
m
Period
s
Dir
25/11:30pm 20.5 S 7 8 1019.0 - 0.0 - - - - - - -
25/11:00pm 20.5 S 6 9 1019.2 - 0.0 - - - - - - -
25/10:30pm 20.1 SSE 6 8 1019.1 - 0.0 - - - - - - -
25/10:00pm 20.8 SE 7 9 1018.9 - 0.0 - - - - - - -
25/09:30pm 20.9 NE 5 6 1018.8 - 0.0 - - - - - - -
25/09:00pm 20.6 CALM 0 2 1018.7 - 0.0 - - - - - - -
25/08:30pm 20.6 CALM 0 0 1018.7 - 0.0 - - - - - - -
25/08:00pm 20.7 CALM 0 0 1018.6 - 0.0 - - - - - - -
25/07:30pm 20.6 NE 3 4 1018.2 - 0.0 - - - - - - -
25/07:00pm 20.7 NE 3 5 1017.9 - 0.0 - - - - - - -
25/06:30pm 21.0 NE 4 5 1017.5 - 0.0 - - - - - - -
25/06:00pm 21.0 NE 4 6 1017.2 - 0.0 - - - - - - -
25/05:30pm 21.7 NE 4 6 1016.9 - 0.0 - - - - - - -
25/05:00pm 22.7 NE 4 7 1016.7 - 0.0 - - - - - - -
25/04:30pm 23.9 ENE 6 8 1016.4 - 0.0 - - - - - - -
25/04:00pm 24.7 ENE 6 9 1016.1 - 0.0 - - - - - - -
25/03:30pm 25.2 NE 7 10 1016.0 - 0.0 - - - - - - -
25/03:00pm 26.0 NE 6 10 1015.9 - 0.0 - - - - - - -
25/02:30pm 27.3 NNE 5 9 1016.0 - 0.0 - - - - - - -
25/02:00pm 27.7 NE 5 8 1016.2 - 0.0 - - - - - - -
25/01:30pm 27.8 NE 5 8 1016.4 - 0.0 - - - - - - -
25/01:00pm 27.7 NE 6 8 1016.7 - 0.0 - - - - - - -
25/12:30pm 27.4 NE 6 9 1017.3 - 0.0 - - - - - - -
25/12:00pm 27.6 ENE 5 9 1017.6 - 0.0 - - - - - - -
25/11:30am 27.1 ENE 6 9 1018.2 - 0.0 - - - - - - -
25/11:00am 26.6 ESE 4 7 1018.7 - 0.0 - - - - - - -
25/10:30am 25.8 S 2 6 1018.8 - 0.0 - - - - - - -
25/10:00am 24.2 S 4 7 1018.9 - 0.0 - - - - - - -
25/09:30am 23.1 SSW 6 9 1018.9 - 0.0 - - - - - - -
25/09:00am 21.8 SSW 5 8 1019.0 - 0.0 - - - - - - -
25/08:30am 20.1 SW 3 9 1018.8 - 0.0 - - - - - - -
25/08:00am 18.5 WSW 4 8 1018.4 - 0.0 - - - - - - -
25/07:30am 17.5 WSW 5 10 1018.1 - 0.0 - - - - - - -
25/07:00am 16.7 WSW 5 8 1017.9 - 0.0 - - - - - - -
25/06:30am 16.4 WSW 5 7 1017.6 - 0.0 - - - - - - -
25/06:00am 16.9 WSW 7 10 1017.2 - 0.0 - - - - - - -
25/05:30am 17.1 WSW 5 7 1017.0 - 0.0 - - - - - - -
25/05:00am 17.0 WSW 5 7 1016.8 - 0.0 - - - - - - -
25/04:30am 16.8 WSW 4 5 1016.6 - 0.0 - - - - - - -
25/04:00am 17.9 WSW 5 9 1016.7 - 0.0 - - - - - - -
25/03:30am 17.9 WSW 5 7 1016.7 - 0.0 - - - - - - -
25/03:00am 18.2 SW 5 8 1016.6 - 0.0 - - - - - - -
25/02:30am 17.9 SW 5 8 1016.6 - 0.0 - - - - - - -
25/02:00am 18.2 WSW 5 9 1016.7 - 0.0 - - - - - - -
25/01:30am 18.5 W 5 6 1016.9 - 0.0 - - - - - - -
25/01:00am 18.4 NNE 4 5 1017.2 - 0.0 - - - - - - -
25/12:30am 18.3 NNE 4 7 1017.5 - 0.0 - - - - - - -
25/12:00am 18.5 NNE 4 6 1017.6 - 0.0 - - - - - - -
 
Date/Time
EST
Temp
°C
Wind Pressure Rain since
9am
mm
Weather Cloud Vis
km
Sea
Height
m
Swell
Dir  Spd
kts
Gust
kts
hPa Trend Height
m
Period
s
Dir
24/11:30pm 18.9 NNE 4 5 1018.0 - 0.0 - - - - - - -
24/11:00pm 19.3 NNE 4 5 1018.2 - 0.0 - - - - - - -
24/10:30pm 19.9 NNE 4 5 1018.3 - 0.0 - - - - - - -
24/10:00pm 20.2 NNE 4 5 1018.6 - 0.0 - - - - - - -
24/09:30pm 20.6 NNE 4 5 1018.4 - 0.0 - - - - - - -
24/09:00pm 20.7 NNE 4 5 1018.4 - 0.0 - - - - - - -
24/08:30pm 20.8 NNE 4 5 1018.4 - 0.0 - - - - - - -
24/08:00pm 20.8 NNE 4 5 1018.3 - 0.0 - - - - - - -
24/07:30pm 20.9 NNE 4 5 1018.2 - 0.0 - - - - - - -
24/07:00pm 21.2 NNE 4 5 1018.0 - 0.0 - - - - - - -
24/06:30pm 20.7 NNE 4 5 1017.8 - 0.0 - - - - - - -
24/06:00pm 20.9 NNE 4 5 1017.5 - 0.0 - - - - - - -
24/05:30pm 21.4 NNE 4 6 1017.3 - 0.0 - - - - - - -
24/05:00pm 22.2 NNE 4 6 1017.1 - 0.0 - - - - - - -
24/04:30pm 23.6 NNE 5 8 1016.8 - 0.0 - - - - - - -
24/04:00pm 24.4 NE 6 9 1016.6 - 0.0 - - - - - - -
24/03:30pm 25.2 NE 5 9 1016.5 - 0.0 - - - - - - -
24/03:00pm 25.8 NE 6 8 1016.5 - 0.0 - - - - - - -
24/02:30pm 26.1 NE 7 9 1016.5 - 0.0 - - - - - - -
24/02:00pm 26.3 NE 7 9 1016.7 - 0.0 - - - - - - -
24/01:30pm 27.1 NE 5 9 1017.0 - 0.0 - - - - - - -
24/01:00pm 26.8 NE 5 8 1017.5 - 0.0 - - - - - - -
24/12:30pm 26.6 NE 6 10 1018.0 - 0.0 - - - - - - -
24/12:00pm 26.1 ENE 7 10 1018.5 - 0.0 - - - - - - -
24/11:30am 25.9 ENE 7 10 1019.0 - 0.0 - - - - - - -
24/11:00am 25.5 ENE 8 10 1019.5 - 0.0 - - - - - - -
24/10:30am 25.2 E 6 10 1019.9 - 0.0 - - - - - - -

Other Formats:

Comma delimited format used in spreadsheet applications
http://www.bom.gov.au/fwo/IDQ60701/IDQ60701.94380.axf

JavaScript Object Notation format (JSON) in row-major order
http://www.bom.gov.au/fwo/IDQ60701/IDQ60701.94380.json